createdAt,value
2019-04-23T00:01:23.305Z,99910.41
2019-04-23T00:03:40.333Z,99907.52
2019-04-23T00:06:19.172Z,99904.45
2019-04-23T00:08:49.027Z,99906.53
2019-04-23T00:11:15.712Z,99897.66
2019-04-23T00:13:46.350Z,99895.02
2019-04-23T00:18:47.879Z,99888.77
2019-04-23T00:21:38.917Z,99884.05
2019-04-23T00:24:12.318Z,99891.33
2019-04-23T00:26:36.668Z,99886.00
2019-04-23T00:29:26.085Z,99873.83
2019-04-23T00:31:37.686Z,99879.78
2019-04-23T00:34:30.359Z,99869.94
2019-04-23T00:36:37.475Z,99875.11
2019-04-23T00:39:01.268Z,99858.88
2019-04-23T00:41:37.700Z,99862.14
2019-04-23T00:44:09.086Z,99867.16
2019-04-23T00:46:35.219Z,99869.88
2019-04-23T00:51:36.752Z,99862.97
2019-04-23T00:54:14.876Z,99863.42
2019-04-23T00:59:08.872Z,99860.06
2019-04-23T01:01:47.678Z,99854.45
2019-04-23T01:04:04.808Z,99859.28
2019-04-23T01:06:41.139Z,99859.66
2019-04-23T01:09:08.837Z,99855.55
2019-04-23T01:11:39.352Z,99857.05
2019-04-23T01:14:11.734Z,99856.52
2019-04-23T01:16:38.194Z,99854.11
2019-04-23T01:19:31.609Z,99863.50
2019-04-23T01:21:43.381Z,99852.08
2019-04-23T01:24:19.309Z,99850.19
2019-04-23T01:30:05.330Z,99849.27
2019-04-23T01:32:32.165Z,99840.30
2019-04-23T01:35:09.714Z,99842.16
2019-04-23T01:37:33.149Z,99847.50
2019-04-23T01:40:04.324Z,99840.22
2019-04-23T01:42:35.701Z,99833.92
2019-04-23T01:45:11.796Z,99831.41
2019-04-23T01:47:30.461Z,99837.28
2019-04-23T01:50:08.192Z,99822.78
2019-04-23T01:52:39.953Z,99828.02
2019-04-23T01:55:12.939Z,99830.09
2019-04-23T01:57:37.968Z,99825.84
2019-04-23T02:00:08.540Z,99819.96
2019-04-23T02:02:49.979Z,99817.69
2019-04-23T02:05:09.879Z,99824.55
2019-04-23T02:07:43.852Z,99809.50
2019-04-23T02:12:42.071Z,99815.78
2019-04-23T02:15:03.701Z,99807.75
2019-04-23T02:17:38.331Z,99801.34
2019-04-23T02:20:08.948Z,99804.20
2019-04-23T02:25:39.747Z,99796.17
2019-04-23T02:28:01.617Z,99794.52
2019-04-23T02:30:58.213Z,99790.30
2019-04-23T02:40:49.532Z,99782.96
2019-04-23T02:45:28.835Z,99776.25
2019-04-23T02:48:17.303Z,99778.09
2019-04-23T02:50:39.490Z,99774.70
2019-04-23T02:53:20.195Z,99779.46
2019-04-23T02:58:10.264Z,99773.28
2019-04-23T03:00:38.167Z,99769.66
2019-04-23T03:03:09.595Z,99771.39
2019-04-23T03:05:46.626Z,99764.98
2019-04-23T03:08:13.761Z,99766.46
2019-04-23T03:13:32.540Z,99750.37
2019-04-23T03:18:35.185Z,99744.88
2019-04-23T03:21:19.240Z,99742.20
2019-04-23T03:23:44.233Z,99744.38
2019-04-23T03:26:26.262Z,99734.32
2019-04-23T03:28:57.830Z,99740.73
2019-04-23T03:38:51.702Z,99729.87
2019-04-23T03:41:23.631Z,99721.88
2019-04-23T03:43:41.171Z,99728.88
2019-04-23T03:48:47.234Z,99733.34
2019-04-23T03:51:21.649Z,99724.02
2019-04-23T03:56:24.124Z,99724.08
2019-04-23T03:58:51.744Z,99719.00
2019-04-23T04:01:23.612Z,99724.30
2019-04-23T04:04:20.300Z,99713.13
2019-04-23T04:09:00.839Z,99712.67
2019-04-23T04:11:25.813Z,99715.44
2019-04-23T04:16:17.973Z,99713.19
2019-04-23T04:21:27.980Z,99717.69
2019-04-23T04:24:10.786Z,99721.08
2019-04-23T04:26:22.026Z,99715.69
2019-04-23T04:28:50.985Z,99720.33
2019-04-23T04:31:20.972Z,99709.30
2019-04-23T04:41:29.095Z,99710.98
2019-04-23T04:44:05.245Z,99710.98
2019-04-23T04:46:37.130Z,99697.63
2019-04-23T04:48:55.805Z,99705.42
2019-04-23T04:51:35.354Z,99701.13
2019-04-23T04:56:55.834Z,99704.48
2019-04-23T04:58:52.937Z,99704.00
2019-04-23T05:01:23.214Z,99695.80
2019-04-23T05:03:45.970Z,99696.28
2019-04-23T05:06:24.555Z,99693.20
2019-04-23T05:09:04.596Z,99690.33
2019-04-23T05:11:26.385Z,99688.16
2019-04-23T05:13:53.005Z,99690.33
2019-04-23T05:16:27.577Z,99693.55
2019-04-23T05:18:52.081Z,99684.48
2019-04-23T05:36:30.342Z,99686.94
2019-04-23T05:41:37.011Z,99688.22
2019-04-23T05:43:52.631Z,99687.62
2019-04-23T05:46:31.495Z,99692.51
2019-04-23T05:48:54.405Z,99684.81
2019-04-23T05:51:27.974Z,99682.78
2019-04-23T05:53:51.345Z,99684.87
2019-04-23T05:56:21.287Z,99671.82
2019-04-23T05:59:04.173Z,99670.05
2019-04-23T06:04:10.547Z,99670.16
2019-04-23T06:09:12.720Z,99667.56
2019-04-23T06:11:45.742Z,99672.38
2019-04-23T06:14:05.291Z,99667.05
2019-04-23T06:16:43.073Z,99666.27
2019-04-23T06:19:07.103Z,99665.64
2019-04-23T06:21:47.517Z,99665.87
2019-04-23T06:24:09.823Z,99661.52
2019-04-23T06:26:40.144Z,99655.73
2019-04-23T06:29:15.458Z,99665.50
2019-04-23T06:31:40.733Z,99663.80
2019-04-23T06:34:12.286Z,99650.42
2019-04-23T06:39:13.416Z,99655.93
2019-04-23T06:41:37.574Z,99653.50
2019-04-23T06:44:19.296Z,99641.23
2019-04-23T06:46:50.579Z,99636.86
2019-04-23T06:49:17.036Z,99612.67
2019-04-23T06:51:55.170Z,99633.19
2019-04-23T06:54:19.068Z,99631.34
2019-04-23T06:56:54.208Z,99623.48
2019-04-23T06:59:17.067Z,99619.48
2019-04-23T07:01:53.237Z,99623.67
2019-04-23T07:04:17.937Z,99618.67
2019-04-23T07:09:13.529Z,99619.63
2019-04-23T07:11:44.771Z,99611.00
2019-04-23T07:14:28.751Z,99616.61
2019-04-23T07:16:49.871Z,99611.40
2019-04-23T07:21:54.478Z,99609.95
2019-04-23T07:24:28.737Z,99610.66
2019-04-23T07:26:58.500Z,99593.61
2019-04-23T07:29:17.855Z,99607.78
2019-04-23T07:31:50.110Z,99606.48
2019-04-23T07:34:14.065Z,99607.16
2019-04-23T07:36:47.362Z,99597.45
2019-04-23T07:39:25.665Z,99596.02
2019-04-23T07:42:03.633Z,99602.98
2019-04-23T07:44:38.708Z,99603.78
2019-04-23T07:47:18.670Z,99602.73
2019-04-23T07:49:37.895Z,99606.62
2019-04-23T07:52:20.106Z,99593.41
2019-04-23T07:54:44.227Z,99604.48
2019-04-23T07:57:14.971Z,99589.70
2019-04-23T07:59:48.689Z,99580.83
2019-04-23T08:02:14.142Z,99584.66
2019-04-23T08:04:44.378Z,99574.25
2019-04-23T08:07:14.961Z,99582.45
2019-04-23T08:09:47.750Z,99578.23
2019-04-23T08:14:48.043Z,99576.16
2019-04-23T08:17:10.737Z,99577.98
2019-04-23T08:19:49.407Z,99567.78
2019-04-23T08:22:20.129Z,99564.58
2019-04-23T08:27:34.763Z,99562.27
2019-04-23T08:30:00.584Z,99558.11
2019-04-23T08:32:22.352Z,99559.33
2019-04-23T08:35:03.157Z,99558.44
2019-04-23T08:37:46.673Z,99564.63
2019-04-23T08:40:04.317Z,99549.39
2019-04-23T08:48:18.747Z,99530.48
2019-04-23T08:50:40.806Z,99529.70
2019-04-23T08:53:26.391Z,99557.95
2019-04-23T08:55:44.158Z,99526.50
2019-04-23T08:58:06.172Z,99513.50
2019-04-23T09:00:46.822Z,99525.88
2019-04-23T09:03:23.644Z,99514.75
2019-04-23T09:06:00.640Z,99505.28
2019-04-23T09:10:51.177Z,99497.80
2019-04-23T09:13:40.215Z,99501.06
2019-04-23T09:20:41.165Z,99509.58
2019-04-23T09:23:24.487Z,99489.19
2019-04-23T09:25:52.595Z,99491.70
2019-04-23T09:28:31.147Z,99504.34
2019-04-23T09:30:54.841Z,99501.69
2019-04-23T09:33:24.068Z,99493.65
2019-04-23T09:36:06.437Z,99482.37
2019-04-23T09:38:39.617Z,99486.36
2019-04-23T09:41:27.001Z,99482.84
2019-04-23T09:44:03.007Z,99469.18
2019-04-23T09:46:36.021Z,99483.50
2019-04-23T09:49:18.731Z,99466.53
2019-04-23T09:54:22.144Z,99463.11
2019-04-23T09:56:41.224Z,99464.58
2019-04-23T09:59:20.863Z,99460.34
2019-04-23T10:01:40.897Z,99466.69
2019-04-23T10:03:56.859Z,99461.91
2019-04-23T10:06:22.831Z,99463.00
2019-04-23T10:08:51.984Z,99458.09
2019-04-23T10:11:19.549Z,99444.68
2019-04-23T10:13:48.178Z,99448.19
2019-04-23T10:16:19.869Z,99449.30
2019-04-23T10:18:48.934Z,99433.89
2019-04-23T10:21:17.672Z,99431.30
2019-04-23T10:23:47.448Z,99436.36
2019-04-23T10:26:16.517Z,99450.45
2019-04-23T10:28:47.688Z,99427.84
2019-04-23T10:31:16.756Z,99427.55
2019-04-23T10:33:46.182Z,99428.58
2019-04-23T10:36:17.877Z,99421.47
2019-04-23T10:38:51.359Z,99412.00
2019-04-23T10:41:16.091Z,99420.90
2019-04-23T10:43:48.764Z,99419.09
2019-04-23T10:46:36.531Z,99410.46
2019-04-23T10:49:48.497Z,99408.86
2019-04-23T10:52:04.767Z,99411.39
2019-04-23T10:55:11.949Z,99392.93
2019-04-23T10:57:12.706Z,99405.91
2019-04-23T10:59:40.287Z,99390.71
2019-04-23T11:02:29.002Z,99402.28
2019-04-23T11:04:57.612Z,99392.59
2019-04-23T11:07:26.474Z,99384.48
2019-04-23T11:15:26.984Z,99389.17
2019-04-23T11:22:45.095Z,99369.16
2019-04-23T11:27:42.578Z,99359.11
2019-04-23T11:30:31.968Z,99362.64
2019-04-23T11:35:26.199Z,99365.52
2019-04-23T11:40:15.789Z,99350.84
2019-04-23T11:42:53.812Z,99354.05
2019-04-23T11:45:27.783Z,99348.09
2019-04-23T11:50:25.605Z,99358.58
2019-04-23T11:55:33.084Z,99342.22
2019-04-23T12:00:34.879Z,99343.41
2019-04-23T12:02:49.718Z,99344.19
2019-04-23T12:05:37.128Z,99334.47
2019-04-23T12:07:57.454Z,99339.56
2019-04-23T12:13:28.631Z,99327.82
2019-04-23T12:15:47.925Z,99326.89
2019-04-23T12:18:19.501Z,99328.86
2019-04-23T12:20:46.238Z,99323.08
2019-04-23T12:25:52.862Z,99333.11
2019-04-23T12:28:25.241Z,99331.05
2019-04-23T12:30:50.178Z,99323.93
2019-04-23T12:33:31.850Z,99319.49
2019-04-23T12:35:52.071Z,99318.72
2019-04-23T12:38:23.839Z,99330.36
2019-04-23T12:40:51.484Z,99317.03
2019-04-23T12:43:19.147Z,99310.06
2019-04-23T12:48:34.919Z,99291.87
2019-04-23T12:55:51.852Z,99278.83
2019-04-23T13:01:07.205Z,99270.09
2019-04-23T13:05:42.181Z,99272.87
2019-04-23T13:10:49.952Z,99278.13
2019-04-23T13:13:32.408Z,99263.71
2019-04-23T13:15:51.930Z,99270.61
2019-04-23T13:20:58.694Z,99265.95
2019-04-23T13:26:00.834Z,99273.99
2019-04-23T13:31:08.236Z,99281.92
2019-04-23T13:33:40.648Z,99243.31
2019-04-23T13:36:28.936Z,99259.28
2019-04-23T13:39:10.045Z,99259.28
2019-04-23T13:43:41.031Z,99234.34
2019-04-23T13:46:13.870Z,99237.52
2019-04-23T13:48:34.495Z,99251.59
2019-04-23T13:53:49.616Z,99246.50
2019-04-23T13:56:11.229Z,99246.50
2019-04-23T13:58:44.914Z,99255.80
2019-04-23T14:01:23.480Z,99226.73
2019-04-23T14:06:29.444Z,99235.61
2019-04-23T14:11:23.324Z,99220.95
2019-04-23T14:13:50.994Z,99226.73
2019-04-23T14:18:56.153Z,99254.05
2019-04-23T14:21:20.500Z,99225.86
2019-04-23T14:24:08.335Z,99218.81
2019-04-23T14:31:17.337Z,99213.33
2019-04-23T14:33:53.110Z,99198.53
2019-04-23T14:36:21.553Z,99228.05
2019-04-23T14:46:34.873Z,99197.27
2019-04-23T14:48:51.842Z,99197.27
2019-04-23T14:53:48.081Z,99181.53
2019-04-23T14:58:57.590Z,99191.46
2019-04-23T15:01:27.493Z,99175.51
2019-04-23T15:11:27.560Z,99191.70
2019-04-23T15:13:51.943Z,99185.69
2019-04-23T15:16:26.211Z,99185.68
2019-04-23T15:24:23.252Z,99179.78
2019-04-23T15:28:57.120Z,99167.84
2019-04-23T15:34:13.952Z,99165.25
2019-04-23T15:41:59.202Z,99153.67
2019-04-23T15:44:13.480Z,99153.09
2019-04-23T15:46:47.679Z,99178.71
2019-04-23T15:51:54.294Z,99166.83
2019-04-23T15:54:17.842Z,99162.30
2019-04-23T15:56:50.536Z,99146.84
2019-04-23T15:59:35.035Z,99157.59
2019-04-23T16:01:40.518Z,99161.48
2019-04-23T16:03:53.732Z,99139.06
2019-04-23T16:06:26.336Z,99160.64
2019-04-23T16:09:12.613Z,99155.08
2019-04-23T16:11:46.981Z,99153.20
2019-04-23T16:16:55.100Z,99175.94
2019-04-23T16:19:36.039Z,99159.19
2019-04-23T16:22:04.218Z,99148.20
2019-04-23T16:24:56.031Z,99148.91
2019-04-23T16:27:07.692Z,99150.11
2019-04-23T16:29:53.786Z,99135.81
2019-04-23T16:32:14.936Z,99143.42
2019-04-23T16:35:10.245Z,99138.23
2019-04-23T16:37:15.312Z,99139.66
2019-04-23T16:39:54.383Z,99135.41
2019-04-23T16:42:16.513Z,99142.47
2019-04-23T16:45:00.955Z,99135.47
2019-04-23T16:47:21.819Z,99132.40
2019-04-23T16:49:58.270Z,99134.51
2019-04-23T17:00:07.516Z,99149.02
2019-04-23T17:02:19.684Z,99145.71
2019-04-23T17:04:57.908Z,99151.47
2019-04-23T17:07:16.744Z,99144.12
2019-04-23T17:10:00.643Z,99139.27
2019-04-23T17:12:17.758Z,99142.92
2019-04-23T17:14:57.257Z,99137.64
2019-04-23T17:17:11.919Z,99153.36
2019-04-23T17:19:50.308Z,99146.49
2019-04-23T17:22:17.714Z,99143.60
2019-04-23T17:25:00.713Z,99148.91
2019-04-23T17:27:24.038Z,99147.54
2019-04-23T17:30:00.203Z,99136.66
2019-04-23T17:32:20.966Z,99132.79
2019-04-23T17:35:10.830Z,99129.05
2019-04-23T17:42:39.284Z,99139.97
2019-04-23T17:45:31.322Z,99143.12
2019-04-23T17:48:05.547Z,99143.09
2019-04-23T17:50:53.269Z,99142.43
2019-04-23T17:53:30.154Z,99143.51
2019-04-23T17:56:03.718Z,99136.12
2019-04-23T17:58:23.385Z,99140.19
2019-04-23T18:03:25.860Z,99155.27
2019-04-23T18:05:57.218Z,99148.55
2019-04-23T18:08:22.878Z,99142.90
2019-04-23T18:10:56.543Z,99153.64
2019-04-23T18:13:27.995Z,99155.03
2019-04-23T18:16:02.998Z,99154.08
2019-04-23T18:18:33.144Z,99152.62
2019-04-23T18:21:21.348Z,99145.34
2019-04-23T18:24:12.946Z,99145.64
2019-04-23T18:26:39.434Z,99155.07
2019-04-23T18:29:17.293Z,99148.23
2019-04-23T18:31:38.623Z,99152.66
2019-04-23T18:34:16.812Z,99161.92
2019-04-23T18:36:40.236Z,99165.71
2019-04-23T18:39:12.127Z,99157.44
2019-04-23T18:41:50.529Z,99163.22
2019-04-23T18:46:52.298Z,99150.62
2019-04-23T18:49:22.471Z,99159.66
2019-04-23T18:51:51.182Z,99160.10
2019-04-23T18:54:14.452Z,99163.09
2019-04-23T18:57:02.008Z,99168.17
2019-04-23T18:59:24.884Z,99170.47
2019-04-23T19:01:48.106Z,99167.63
2019-04-23T19:04:33.304Z,99171.41
2019-04-23T19:06:41.361Z,99167.56
2019-04-23T19:09:32.475Z,99167.63
2019-04-23T19:12:05.138Z,99165.41
2019-04-23T19:14:38.853Z,99167.55
2019-04-23T19:24:42.222Z,99172.16
2019-04-23T19:32:02.970Z,99170.14
2019-04-23T19:37:01.937Z,99178.16
2019-04-23T19:39:36.619Z,99178.60
2019-04-23T19:42:17.947Z,99171.88
2019-04-23T19:47:12.594Z,99177.51
2019-04-23T19:49:45.282Z,99176.03
2019-04-23T19:52:04.803Z,99173.58
2019-04-23T19:57:17.336Z,99167.37
2019-04-23T19:59:44.790Z,99188.18
2019-04-23T20:04:42.812Z,99169.81
2019-04-23T20:07:36.164Z,99159.85
2019-04-23T20:09:48.683Z,99165.89
2019-04-23T20:14:53.455Z,99161.12
2019-04-23T20:17:40.965Z,99166.27
2019-04-23T20:19:45.340Z,99173.88
2019-04-23T20:24:57.782Z,99164.33
2019-04-23T20:27:19.342Z,99168.63
2019-04-23T20:32:06.306Z,99172.42
2019-04-23T20:35:06.594Z,99162.70
2019-04-23T20:40:08.089Z,99162.50
2019-04-23T20:42:33.914Z,99172.66
2019-04-23T20:45:16.939Z,99163.94
2019-04-23T20:49:51.853Z,99163.09
2019-04-23T20:52:26.271Z,99155.69
2019-04-23T20:55:01.121Z,99165.06
2019-04-23T21:00:30.325Z,99147.66
2019-04-23T21:03:18.377Z,99151.48
2019-04-23T21:05:21.705Z,99147.30
2019-04-23T21:10:34.262Z,99149.80
2019-04-23T21:13:06.822Z,99155.27
2019-04-23T21:15:29.063Z,99160.05
2019-04-23T21:18:10.902Z,99150.98
2019-04-23T21:25:43.820Z,99169.52
2019-04-23T21:30:58.940Z,99161.51
2019-04-23T21:36:11.093Z,99153.04
2019-04-23T21:41:15.352Z,99150.28
2019-04-23T21:53:53.122Z,99145.84
2019-04-23T21:56:26.139Z,99153.56
2019-04-23T22:16:38.603Z,99162.19
2019-04-23T22:19:10.566Z,99145.58
2019-04-23T22:21:44.433Z,99157.05
2019-04-23T22:29:13.836Z,99149.73
2019-04-23T22:31:37.704Z,99152.70
2019-04-23T22:36:29.584Z,99145.00
2019-04-23T22:39:07.729Z,99148.09
2019-04-23T22:41:38.025Z,99138.67
2019-04-23T22:49:14.237Z,99141.77
2019-04-23T22:51:41.976Z,99137.22
2019-04-23T22:54:05.549Z,99142.72
2019-04-23T22:56:44.308Z,99138.97
2019-04-23T22:59:26.582Z,99135.41
2019-04-23T23:04:13.667Z,99145.44
2019-04-23T23:11:49.067Z,99129.11
2019-04-23T23:16:48.520Z,99144.16
2019-04-23T23:22:03.311Z,99137.34
2019-04-23T23:24:14.978Z,99142.34
2019-04-23T23:26:49.428Z,99122.27
2019-04-23T23:29:15.777Z,99129.80
2019-04-23T23:31:52.128Z,99124.73
2019-04-23T23:34:15.475Z,99125.19
2019-04-23T23:41:52.475Z,99125.66
2019-04-23T23:47:01.670Z,99144.52
2019-04-23T23:49:17.190Z,99118.70
2019-04-23T23:51:49.606Z,99122.92
2019-04-23T23:56:58.816Z,99114.45
2019-04-23T23:59:21.489Z,99123.30
